If you wish to contribute or participate in the discussions about articles you are invited to join SKYbrary as a registered user

 Actions

Rancagua de La Independencia Airport

From SKYbrary Wiki

SCRG
Airport
ICAO: SCRG – IATA: QRC
Summary
Name Rancagua de La Independencia Airport
Region South America and Caribbean
Territory Chile CL.gif
Location Rancagua, Libertador General Bernardo O'Higgins
Serving Rancagua
Elevation 440.741 m
1,446 ft
1,446 ft440.741 m
Type medium airport
Coordinates 34° 10' 25.30" S, 70° 46' 32.50" W
Runways
Designator Length Width Surface ROPS
3/21 1650 m5,413.386 ft
23 m75.459 ft
ASP /


METAR
Observation SCRG 191600Z 22011KT CAVOK 10/04 Q1020
Station DE LA INDEPENDEN
Date/Time 19 September 2019 16:00:00
Wind direction 220°
Wind speed 11 kts
Lowest cloud amount clouds and visibility OK
Temperature 10°C
Dew point 4°C
Humidity 66%
QNH 1020 hPa
Weather condition n/a

Civil/military airport located in Rancagua, Libertador General Bernado O'Higgins, Chile.

Climatology

Temperate mediterranean climate (Köppen climate classification Csb)

Maps

Terrain

Loading map...

Airport Layout

Loading map...


Accidents & Serious Incidents at or in vicinity of SCRG

None on SKYbrary